SEKCJA WYDRUKÓW, pokaż »

METAR EPBY 070100Z 26008KT 9999 -RA OVC003 02/01 Q1008=

METAR EPGD 070100Z 25004KT 8000 OVC003 01/01 Q1006 =

METAR EPKK 070100Z 26008KT 9999 FEW008 BKN017 02/01 Q1011 =

METAR EPKT 070100Z 23007KT 3200 -SN BR SCT003 OVC006 00/00 Q1010 =

METAR EPLB 070100Z 22006KT 4400 -RASN BR BKN003 02/01 Q1009 =

METAR EPLL 070100Z 25009KT 4500 RA BR OVC003 01/01 Q1009 =

METAR EPML 070100Z NIL=

METAR EPMO 070100Z 23004KT 1100 R08/1100U -RASN BR OVC005 00/00 Q1008
=

METAR EPPO 070100Z 28010KT 4900 BR OVC002 02/02 Q1010 =

METAR EPRA 070100Z NIL=

METAR EPRZ 070100Z 23010KT 9999 OVC008 02/01 Q1011 =

METAR EPSC 070100Z 26006KT 9999 FEW004 OVC019 02/01 Q1010 =

METAR EPSY 070100Z 18001KT 3000 -RASN BKN002 OVC012 M00/M00 Q1007=

METAR EPWA 070100Z 26006KT 4600 -RA BR SCT003 BKN009 01/01 Q1008
TEMPO BKN003=

METAR EPWR 070100Z 29011KT 9999 -RA BKN007 OVC009 02/01 Q1011 =

METAR EPZG 070100Z NIL=
 METAR EPGD
Lokalizacja:EPGD Gdańsk Lech Wałęsa
Czas:01:00 UTC
Średni kierunek wiatru:250 °
Średnia prędkość wiatru:4 węzłów
Widzialność:8 kilometrów
Pierwsza warstwa chmur:8/8, wysokość podstawy 300 FT
Temperatura powietrza:1 °C
Temperatura punktu rosy:1 °C
Ciśnienie QNH:1006 hPa